Time;durP1;ratioP1;P1;durP2;ratioP2;P2;SDS_P1;SDS_P2;PMS_P1;PMS_P2;Temp;Humidity;BMP_temperature;BMP_pressure;BME280_temperature;BME280_humidity;BME280_pressure;Samples;Min_cycle;Max_cycle;Signal;HPM_P1;HPM_P2
2022/03/13 00:00:40;;;;;;;6.82;3.97;;;;;;;-1.42;57.30;100476.06;4841597;29;20049;-67
2022/03/13 00:03:09;;;;;;;7.95;5.00;;;;;;;-1.41;57.83;100471.72;4841579;29;20136;-66
2022/03/13 00:05:37;;;;;;;8.38;4.47;;;;;;;-1.39;57.33;100460.34;4842728;29;20057;-67
2022/03/13 00:08:02;;;;;;;10.15;5.22;;;;;;;-1.41;57.27;100459.50;4825965;29;20044;-67
2022/03/13 00:10:27;;;;;;;10.30;5.53;;;;;;;-1.41;57.15;100462.13;4841852;29;20056;-67
2022/03/13 00:12:52;;;;;;;8.68;5.18;;;;;;;-1.38;57.51;100451.63;4842989;29;20106;-67
2022/03/13 00:15:23;;;;;;;9.25;5.90;;;;;;;-1.35;57.55;100454.19;4842799;29;20085;-68
2022/03/13 00:17:49;;;;;;;10.68;6.85;;;;;;;-1.34;57.69;100445.47;4829957;29;20640;-67
2022/03/13 00:20:14;;;;;;;7.30;5.10;;;;;;;-1.32;57.07;100448.94;4845239;29;20045;-66
2022/03/13 00:22:39;;;;;;;11.00;6.35;;;;;;;-1.31;57.34;100448.06;4846707;29;20040;-67
2022/03/13 00:25:08;;;;;;;8.25;5.10;;;;;;;-1.29;57.17;100446.31;4829712;29;20052;-67
2022/03/13 00:27:35;;;;;;;8.93;5.18;;;;;;;-1.29;57.35;100462.00;4845202;29;20070;-66
2022/03/13 00:30:04;;;;;;;7.95;5.25;;;;;;;-1.27;56.71;100455.00;4845188;29;20045;-67
2022/03/13 00:32:29;;;;;;;10.05;6.32;;;;;;;-1.23;57.50;100461.03;4845154;29;20193;-67
2022/03/13 00:34:53;;;;;;;8.32;4.95;;;;;;;-1.20;57.25;100458.41;4846006;29;20136;-66
2022/03/13 00:37:18;;;;;;;9.00;5.07;;;;;;;-1.18;57.43;100454.03;4846845;29;20053;-67
2022/03/13 00:39:44;;;;;;;10.50;6.05;;;;;;;-1.16;57.15;100453.13;4845060;29;20061;-66
2022/03/13 00:42:09;;;;;;;10.18;6.03;;;;;;;-1.14;57.02;100451.38;4846002;29;20083;-67
2022/03/13 00:44:34;;;;;;;11.10;6.88;;;;;;;-1.13;57.71;100457.47;4829563;29;20119;-67
2022/03/13 00:46:59;;;;;;;8.13;5.88;;;;;;;-1.11;57.48;100459.16;4847068;29;20062;-66
2022/03/13 00:49:24;;;;;;;12.50;6.07;;;;;;;-1.10;57.44;100460.91;4831732;29;20546;-68
2022/03/13 00:51:48;;;;;;;9.98;5.32;;;;;;;-1.09;57.46;100456.53;4847221;29;20524;-67
2022/03/13 00:54:13;;;;;;;6.85;4.72;;;;;;;-1.08;57.28;100463.50;4848417;29;20053;-67
2022/03/13 00:56:38;;;;;;;7.00;4.93;;;;;;;-1.04;56.83;100462.59;4846776;29;20096;-67
2022/03/13 00:59:03;;;;;;;7.88;4.97;;;;;;;-1.02;57.23;100465.19;4845786;29;20131;-66
2022/03/13 01:01:28;;;;;;;7.53;4.57;;;;;;;-1.02;57.21;100465.19;4844301;29;20463;-67
2022/03/13 01:03:53;;;;;;;8.80;4.95;;;;;;;-1.05;57.42;100458.25;4844400;29;20479;-66
2022/03/13 01:06:20;;;;;;;6.22;4.63;;;;;;;-1.06;57.54;100459.13;4844518;29;20449;-67
2022/03/13 01:08:49;;;;;;;8.80;5.00;;;;;;;-1.05;57.88;100463.47;4844194;29;20049;-67
2022/03/13 01:11:16;;;;;;;7.85;4.75;;;;;;;-1.03;57.97;100463.47;4844149;29;20056;-67
2022/03/13 01:13:41;;;;;;;7.50;4.63;;;;;;;-1.04;57.58;100464.34;4845411;29;20060;-66
2022/03/13 01:16:32;;;;;;;8.63;4.78;;;;;;;-1.01;57.77;100464.28;4844232;29;20053;-67
2022/03/13 01:18:58;;;;;;;6.18;4.40;;;;;;;-1.02;57.51;100465.19;4838392;29;20430;-67
2022/03/13 01:21:23;;;;;;;8.27;4.70;;;;;;;-1.06;57.90;100456.50;4845168;29;20056;-66
2022/03/13 01:24:05;;;;;;;8.32;5.22;;;;;;;-1.00;57.84;100463.41;4828488;29;20048;-67
2022/03/13 01:26:34;;;;;;;5.47;3.67;;;;;;;-1.05;57.55;100470.47;4843024;29;20045;-67
2022/03/13 01:28:59;;;;;;;4.28;3.88;;;;;;;-1.06;57.14;100471.34;4828283;29;20105;-67
2022/03/13 01:31:30;;;;;;;6.10;4.38;;;;;;;-1.11;56.96;100467.00;4845118;29;20049;-67
2022/03/13 01:33:57;;;;;;;6.47;4.03;;;;;;;-1.12;57.30;100470.50;4843663;29;20052;-66
2022/03/13 01:36:21;;;;;;;6.38;4.53;;;;;;;-1.14;57.49;100471.44;4843695;29;20045;-67
2022/03/13 01:38:46;;;;;;;5.97;4.03;;;;;;;-1.13;57.50;100473.19;4844986;29;20064;-67
2022/03/13 01:41:11;;;;;;;6.10;4.68;;;;;;;-1.12;57.38;100480.97;4845034;29;20041;-67
2022/03/13 01:43:37;;;;;;;7.45;4.95;;;;;;;-1.08;57.54;100476.59;4843848;29;20496;-67
2022/03/13 01:46:03;;;;;;;8.18;4.95;;;;;;;-1.04;57.71;100480.03;4827968;29;20048;-67
2022/03/13 01:48:30;;;;;;;6.40;4.40;;;;;;;-1.02;58.05;100481.78;4845149;29;20057;-68
2022/03/13 01:50:55;;;;;;;6.88;4.63;;;;;;;-1.01;57.58;100487.84;4843749;29;20048;-66
2022/03/13 01:53:21;;;;;;;4.88;3.70;;;;;;;-1.03;57.42;100484.41;4844874;29;20049;-66
2022/03/13 01:55:46;;;;;;;6.70;4.10;;;;;;;-1.04;57.42;100494.00;4843424;29;20503;-67
2022/03/13 01:58:12;;;;;;;6.53;3.80;;;;;;;-1.03;57.22;100481.78;4827977;29;20049;-66
2022/03/13 02:00:37;;;;;;;7.55;4.75;;;;;;;-1.03;57.08;100493.13;4843170;29;20053;-66
2022/03/13 02:03:02;;;;;;;5.70;4.22;;;;;;;-1.02;57.56;100491.38;4844530;29;20105;-66
2022/03/13 02:05:32;;;;;;;6.13;4.38;;;;;;;-1.00;57.05;100490.44;4844333;29;20182;-67
2022/03/13 02:07:59;;;;;;;6.05;4.20;;;;;;;-1.02;57.04;100491.38;4844440;29;20120;-67
2022/03/13 02:10:25;;;;;;;7.03;4.22;;;;;;;-1.04;57.54;100480.03;4843086;29;20338;-66
2022/03/13 02:12:50;;;;;;;5.32;3.67;;;;;;;-1.04;57.33;100490.50;4844492;29;20053;-67
2022/03/13 02:15:15;;;;;;;5.68;4.10;;;;;;;-1.06;57.39;100487.03;4844057;29;20049;-67
2022/03/13 02:17:40;;;;;;;5.32;3.72;;;;;;;-1.06;57.33;100494.88;4842958;29;20069;-66
2022/03/13 02:20:13;;;;;;;6.40;4.38;;;;;;;-1.01;57.79;100493.06;4844175;29;20124;-67
2022/03/13 02:22:38;;;;;;;5.32;3.67;;;;;;;-1.03;57.05;100500.97;4844228;29;20063;-66
2022/03/13 02:25:03;;;;;;;5.60;4.20;;;;;;;-1.03;57.11;100500.09;4844195;29;20127;-66
2022/03/13 02:27:32;;;;;;;8.27;4.15;;;;;;;-1.08;57.90;100486.19;4827129;29;20056;-66
2022/03/13 02:29:57;;;;;;;5.68;3.97;;;;;;;-1.07;57.88;100491.41;4827117;29;20139;-66
2022/03/13 02:32:22;;;;;;;5.50;4.07;;;;;;;-1.12;58.22;100486.22;4811718;29;20163;-67
2022/03/13 02:34:47;;;;;;;7.22;4.22;;;;;;;-1.11;57.81;100487.94;4827163;29;20076;-66
2022/03/13 02:37:38;;;;;;;6.05;4.35;;;;;;;-1.06;58.58;100490.53;4842622;29;20051;-67
2022/03/13 02:40:05;;;;;;;4.53;3.40;;;;;;;-1.10;58.22;100489.69;4843821;29;20052;-66
2022/03/13 02:42:31;;;;;;;5.13;4.25;;;;;;;-1.10;57.69;100499.28;4843906;29;20052;-67
2022/03/13 02:44:56;;;;;;;6.65;4.05;;;;;;;-1.17;58.18;100488.03;4842641;29;20047;-66
2022/03/13 02:47:22;;;;;;;5.72;4.07;;;;;;;-1.15;57.85;100496.72;4843748;29;20098;-66
2022/03/13 02:49:46;;;;;;;6.20;3.88;;;;;;;-1.14;58.39;100494.97;4842456;29;20036;-66
2022/03/13 02:52:12;;;;;;;5.15;4.13;;;;;;;-1.14;58.14;100498.47;4843607;29;20052;-66
2022/03/13 02:54:36;;;;;;;5.85;3.65;;;;;;;-1.14;58.14;100502.84;4843879;29;20044;-66
2022/03/13 02:57:02;;;;;;;7.55;4.05;;;;;;;-1.14;58.08;100506.31;4842787;29;20131;-67
2022/03/13 02:59:27;;;;;;;4.72;3.35;;;;;;;-1.14;58.46;100508.94;4843356;29;20049;-67
2022/03/13 03:01:52;;;;;;;5.97;3.85;;;;;;;-1.15;58.03;100507.19;4842285;29;20053;-66
2022/03/13 03:04:22;;;;;;;5.10;3.63;;;;;;;-1.14;57.92;100513.31;4842134;29;20041;-67
2022/03/13 03:06:56;;;;;;;4.45;3.25;;;;;;;-1.12;58.23;100514.13;4826743;29;20496;-66
2022/03/13 03:09:21;;;;;;;6.45;3.67;;;;;;;-1.19;58.36;100515.09;4826804;29;20510;-66
2022/03/13 03:11:47;;;;;;;4.50;3.25;;;;;;;-1.21;58.37;100520.31;4843456;29;20052;-67
2022/03/13 03:14:11;;;;;;;6.07;3.22;;;;;;;-1.23;58.49;100516.84;4843568;29;20052;-66
2022/03/13 03:16:37;;;;;;;4.20;3.05;;;;;;;-1.31;58.48;100515.19;4843319;29;20571;-66
2022/03/13 03:19:02;;;;;;;6.43;3.30;;;;;;;-1.32;58.49;100530.03;4842086;29;20503;-66
2022/03/13 03:21:27;;;;;;;5.68;3.72;;;;;;;-1.33;58.40;100527.41;4841906;29;20057;-66
2022/03/13 03:23:52;;;;;;;6.00;3.70;;;;;;;-1.35;58.51;100524.81;4841751;29;20076;-67
2022/03/13 03:26:17;;;;;;;7.50;3.33;;;;;;;-1.34;58.32;100518.69;4841963;29;20080;-66
2022/03/13 03:28:43;;;;;;;5.65;3.05;;;;;;;-1.32;58.51;100522.19;4842163;29;20087;-67
2022/03/13 03:31:07;;;;;;;4.88;2.58;;;;;;;-1.39;58.18;100522.25;4843120;29;20504;-67
2022/03/13 03:33:32;;;;;;;4.93;3.53;;;;;;;-1.53;58.65;100514.53;4826590;29;20568;-67
2022/03/13 03:35:57;;;;;;;4.72;3.03;;;;;;;-1.58;58.83;100511.09;4841778;29;20045;-66
2022/03/13 03:38:22;;;;;;;7.32;3.33;;;;;;;-1.66;58.95;100511.16;4826284;29;20072;-67
2022/03/13 03:40:48;;;;;;;2.47;2.20;;;;;;;-1.72;58.93;100523.41;4826196;29;20049;-67
2022/03/13 03:43:12;;;;;;;3.03;2.67;;;;;;;-1.70;59.52;100526.88;4826328;29;20088;-67
2022/03/13 03:45:37;;;;;;;3.53;2.35;;;;;;;-1.67;58.39;100526.84;4841660;29;20057;-66
2022/03/13 03:48:02;;;;;;;2.55;2.17;;;;;;;-1.61;58.62;100511.13;4826155;29;20131;-66
2022/03/13 03:50:27;;;;;;;4.60;3.05;;;;;;;-1.79;59.29;100506.00;4825629;29;20131;-66
2022/03/13 03:52:55;;;;;;;3.85;2.55;;;;;;;-1.78;59.22;100510.38;4826179;29;20053;-66
2022/03/13 03:55:21;;;;;;;5.00;2.67;;;;;;;-1.77;59.08;100510.34;4826273;29;20612;-66
2022/03/13 03:57:45;;;;;;;3.38;2.80;;;;;;;-1.83;59.25;100506.06;4841583;29;20599;-66
2022/03/13 04:00:11;;;;;;;8.27;3.10;;;;;;;-1.79;59.08;100511.25;4825858;29;20482;-66
2022/03/13 04:02:39;;;;;;;5.40;2.92;;;;;;;-1.89;59.18;100510.44;4856891;29;20041;-67
2022/03/13 04:05:04;;;;;;;3.63;2.03;;;;;;;-1.99;59.46;100509.66;4843238;29;20060;-66
2022/03/13 04:07:29;;;;;;;4.22;2.22;;;;;;;-2.10;60.01;100506.25;4842721;29;20416;-66
2022/03/13 04:09:54;;;;;;;3.58;2.40;;;;;;;-2.17;60.04;100519.38;4841662;29;20052;-65
2022/03/13 04:12:19;;;;;;;2.42;1.98;;;;;;;-2.10;59.71;100514.06;4841528;29;20100;-67
2022/03/13 04:14:45;;;;;;;3.53;2.38;;;;;;;-2.05;60.01;100503.63;4841798;29;20616;-67
2022/03/13 04:17:09;;;;;;;3.28;2.67;;;;;;;-2.00;59.91;100500.06;4826047;29;20128;-66
2022/03/13 04:19:34;;;;;;;2.80;2.13;;;;;;;-1.95;58.71;100492.22;4842459;29;20136;-66
2022/03/13 04:22:00;;;;;;;4.13;2.47;;;;;;;-1.99;58.83;100509.66;4842358;29;20067;-67
2022/03/13 04:24:25;;;;;;;5.13;2.85;;;;;;;-2.08;59.88;100520.16;4841507;29;20087;-65
2022/03/13 04:26:50;;;;;;;4.15;2.38;;;;;;;-2.05;59.78;100509.72;4841252;29;20085;-66
2022/03/13 04:29:16;;;;;;;3.63;1.98;;;;;;;-2.00;58.61;100515.75;4841032;29;20080;-66
2022/03/13 04:31:41;;;;;;;2.88;2.58;;;;;;;-1.98;58.65;100516.63;4841156;29;20120;-66
2022/03/13 04:34:06;;;;;;;2.67;1.90;;;;;;;-2.00;58.25;100507.91;4841126;29;20140;-66
2022/03/13 04:36:35;;;;;;;3.67;2.20;;;;;;;-2.03;58.77;100505.31;4841176;29;20053;-66
2022/03/13 04:39:01;;;;;;;1.80;1.70;;;;;;;-2.06;59.34;100507.97;4842257;29;20504;-66
2022/03/13 04:41:26;;;;;;;3.33;2.33;;;;;;;-2.14;59.19;100512.34;4842168;29;20057;-67
2022/03/13 04:43:51;;;;;;;3.30;2.08;;;;;;;-2.11;59.00;100509.72;4842406;29;20056;-66
2022/03/13 04:46:16;;;;;;;1.85;1.65;;;;;;;-2.02;59.27;100517.50;4842627;29;20079;-67
2022/03/13 04:48:41;;;;;;;2.90;1.83;;;;;;;-2.03;58.99;100513.16;4825861;29;20077;-67
2022/03/13 04:51:05;;;;;;;3.75;1.85;;;;;;;-1.95;58.64;100518.34;4825528;29;20068;-67
2022/03/13 04:53:30;;;;;;;2.10;1.67;;;;;;;-1.88;58.46;100515.66;4840753;29;20048;-67
2022/03/13 04:55:56;;;;;;;3.03;1.75;;;;;;;-1.89;58.73;100506.09;4840699;29;20041;-67
2022/03/13 04:58:20;;;;;;;2.53;2.00;;;;;;;-1.96;59.11;100520.09;4842676;29;20051;-67
2022/03/13 05:00:47;;;;;;;3.85;2.22;;;;;;;-1.86;58.23;100518.28;4842411;29;20616;-66
2022/03/13 05:03:12;;;;;;;3.63;2.05;;;;;;;-1.83;58.55;100515.66;4843531;29;20044;-66
2022/03/13 05:05:38;;;;;;;2.30;1.75;;;;;;;-1.71;58.19;100519.91;4844273;29;20184;-64
2022/03/13 05:08:05;;;;;;;3.90;2.38;;;;;;;-1.64;58.18;100524.22;4844417;29;20109;-66
2022/03/13 05:10:35;;;;;;;2.65;1.73;;;;;;;-1.59;58.08;100522.44;4844415;29;20068;-66
2022/03/13 05:12:59;;;;;;;3.47;2.28;;;;;;;-1.57;57.57;100518.03;4844536;29;20136;-66
2022/03/13 05:15:24;;;;;;;6.65;2.75;;;;;;;-1.56;58.01;100522.38;4845538;29;20132;-65
2022/03/13 05:17:51;;;;;;;3.35;2.15;;;;;;;-1.67;58.04;100519.84;4843905;29;20056;-66
2022/03/13 05:20:16;;;;;;;4.03;2.20;;;;;;;-1.74;58.11;100519.94;4831529;29;20124;-66
2022/03/13 05:22:41;;;;;;;2.85;2.35;;;;;;;-1.64;58.16;100519.84;4848923;29;20083;-65
2022/03/13 05:25:07;;;;;;;4.32;3.08;;;;;;;-1.68;58.24;100536.41;4851090;29;20065;-67
2022/03/13 05:27:32;;;;;;;4.00;2.60;;;;;;;-1.64;58.92;100538.16;4850092;29;20504;-65
2022/03/13 05:29:57;;;;;;;5.68;3.63;;;;;;;-1.73;59.25;100543.44;4847532;29;20523;-67
2022/03/13 05:32:22;;;;;;;4.88;3.15;;;;;;;-1.63;58.72;100539.88;4827561;29;20447;-66
2022/03/13 05:34:47;;;;;;;6.75;3.78;;;;;;;-1.61;58.93;100547.72;4827837;29;20044;-66
2022/03/13 05:37:12;;;;;;;4.38;3.13;;;;;;;-1.57;58.93;100544.19;4844202;29;20089;-67
2022/03/13 05:39:37;;;;;;;6.55;2.55;;;;;;;-1.51;59.06;100552.00;4845014;29;20129;-66
2022/03/13 05:42:05;;;;;;;6.03;2.55;;;;;;;-1.48;59.78;100536.28;4835225;29;20424;-67
2022/03/13 05:44:31;;;;;;;5.15;3.53;;;;;;;-1.46;59.10;100542.34;4862857;29;20049;-66
2022/03/13 05:46:56;;;;;;;3.78;2.97;;;;;;;-1.42;59.33;100544.06;4861602;29;20193;-67
2022/03/13 05:49:20;;;;;;;8.23;4.38;;;;;;;-1.34;59.33;100542.25;4862355;29;20135;-67
2022/03/13 05:51:46;;;;;;;5.43;3.10;;;;;;;-1.42;59.41;100544.06;4863396;29;20103;-67
2022/03/13 05:54:11;;;;;;;4.28;2.70;;;;;;;-1.48;59.63;100551.97;4862638;29;20192;-67
2022/03/13 05:56:37;;;;;;;6.38;3.63;;;;;;;-1.55;60.54;100552.88;4847722;29;20080;-67
2022/03/13 05:59:02;;;;;;;4.30;3.20;;;;;;;-1.53;60.44;100543.28;4863579;29;20087;-67
2022/03/13 06:01:27;;;;;;;4.18;3.00;;;;;;;-1.42;60.13;100557.13;4863453;29;20052;-67
2022/03/13 06:03:52;;;;;;;5.97;3.67;;;;;;;-1.33;59.13;100566.66;4863297;29;20045;-66
2022/03/13 06:06:17;;;;;;;7.57;4.25;;;;;;;-1.42;59.40;100559.75;4862030;29;20192;-67
2022/03/13 06:08:42;;;;;;;12.32;6.00;;;;;;;-1.43;60.16;100557.16;4863033;29;20135;-67
2022/03/13 06:11:08;;;;;;;7.97;4.82;;;;;;;-1.31;59.68;100557.91;4846459;29;20416;-67
2022/03/13 06:13:32;;;;;;;11.88;4.60;;;;;;;-1.24;59.80;100548.28;4845786;29;20072;-67
2022/03/13 06:15:58;;;;;;;11.02;5.25;;;;;;;-1.21;59.55;100554.34;4861479;29;20084;-68
2022/03/13 06:18:22;;;;;;;7.82;4.10;;;;;;;-1.08;59.59;100557.69;4861533;29;20056;-67
2022/03/13 06:20:47;;;;;;;9.73;5.57;;;;;;;-1.02;58.94;100552.44;4863305;29;20056;-68
2022/03/13 06:23:13;;;;;;;10.75;4.97;;;;;;;-1.02;59.21;100556.78;4861956;29;20140;-66
2022/03/13 06:25:38;;;;;;;8.23;4.53;;;;;;;-0.93;59.38;100559.31;4861924;29;20500;-66
2022/03/13 06:28:03;;;;;;;8.82;4.63;;;;;;;-0.86;58.94;100561.84;4863335;29;20530;-69
2022/03/13 06:30:28;;;;;;;10.77;4.68;;;;;;;-1.06;59.37;100560.31;4861534;29;20131;-67
2022/03/13 06:32:56;;;;;;;13.55;5.47;;;;;;;-0.95;59.56;100555.84;4861713;29;20578;-68
2022/03/13 06:35:22;;;;;;;12.13;5.97;;;;;;;-1.03;59.68;100547.19;4862556;29;20187;-67
2022/03/13 06:37:54;;;;;;;11.30;5.00;;;;;;;-1.01;59.67;100554.13;4862918;29;20052;-68
2022/03/13 06:40:20;;;;;;;12.40;5.32;;;;;;;-0.92;59.53;100555.81;4861520;29;20049;-67
2022/03/13 06:42:48;;;;;;;9.98;4.70;;;;;;;-0.92;59.41;100551.44;4863470;29;20055;-67
2022/03/13 06:45:16;;;;;;;7.82;4.90;;;;;;;-0.84;59.47;100554.84;4863824;29;20048;-68
2022/03/13 06:47:49;;;;;;;6.25;3.97;;;;;;;-0.80;60.17;100556.56;4864062;29;20040;-68
2022/03/13 06:50:15;;;;;;;6.90;4.32;;;;;;;-0.75;59.49;100556.47;4862985;29;20060;-67
2022/03/13 06:52:40;;;;;;;7.07;3.72;;;;;;;-0.63;59.81;100548.50;4861406;29;20044;-67
2022/03/13 06:55:06;;;;;;;8.50;4.75;;;;;;;-0.69;59.30;100545.97;4861601;29;20056;-68
2022/03/13 06:57:31;;;;;;;12.80;4.55;;;;;;;-0.64;59.46;100541.53;4861424;29;20055;-68
2022/03/13 06:59:57;;;;;;;7.70;3.95;;;;;;;-0.48;59.15;100536.97;4865975;29;20044;-67
2022/03/13 07:02:22;;;;;;;6.68;4.05;;;;;;;-0.28;58.28;100537.59;4856302;29;20515;-67
2022/03/13 07:04:47;;;;;;;5.60;3.90;;;;;;;-0.10;58.29;100539.06;4857545;29;20546;-67
2022/03/13 07:07:12;;;;;;;6.60;3.85;;;;;;;0.06;57.73;100545.84;4856342;29;20041;-67
2022/03/13 07:09:37;;;;;;;7.72;4.43;;;;;;;0.11;57.44;100530.94;4872170;29;20048;-68
2022/03/13 07:12:01;;;;;;;6.63;4.28;;;;;;;0.22;57.52;100542.13;4872228;29;20044;-69
2022/03/13 07:14:26;;;;;;;8.35;5.18;;;;;;;0.34;57.03;100535.78;4869202;29;20131;-68
2022/03/13 07:16:52;;;;;;;9.27;5.20;;;;;;;0.38;56.69;100541.88;4861938;29;20516;-68
2022/03/13 07:19:17;;;;;;;7.25;5.05;;;;;;;0.41;56.89;100536.59;4863168;29;20067;-69
2022/03/13 07:21:42;;;;;;;13.35;5.60;;;;;;;0.46;56.75;100532.09;4860980;29;20056;-68
2022/03/13 07:24:07;;;;;;;12.57;6.20;;;;;;;0.55;56.33;100522.34;4861026;29;20087;-69
2022/03/13 07:26:31;;;;;;;9.57;5.47;;;;;;;0.70;55.81;100518.59;4860934;29;20124;-69
2022/03/13 07:28:56;;;;;;;10.38;4.95;;;;;;;0.86;55.52;100514.81;4865175;29;20056;-69
2022/03/13 07:31:21;;;;;;;7.35;4.15;;;;;;;1.05;55.29;100505.69;4869791;29;20534;-70
2022/03/13 07:33:46;;;;;;;7.75;4.85;;;;;;;1.29;54.93;100508.72;4854671;29;20044;-71
2022/03/13 07:36:11;;;;;;;9.93;4.97;;;;;;;1.49;53.48;100503.94;4830271;29;20445;-68
2022/03/13 07:38:36;;;;;;;6.88;4.07;;;;;;;1.71;53.60;100497.31;4861677;29;20415;-68
2022/03/13 07:41:01;;;;;;;7.13;4.13;;;;;;;1.90;52.41;100507.44;4860305;29;20048;-69
2022/03/13 07:43:26;;;;;;;7.18;4.50;;;;;;;2.14;52.29;100512.16;4860657;29;20060;-68
2022/03/13 07:45:51;;;;;;;6.93;3.90;;;;;;;2.29;51.50;100500.38;4861034;29;20072;-69
2022/03/13 07:48:16;;;;;;;8.45;4.55;;;;;;;2.33;51.86;100504.69;4862430;29;20095;-67
2022/03/13 07:50:41;;;;;;;5.80;4.50;;;;;;;2.37;51.16;100508.97;4861659;29;20044;-68
2022/03/13 07:53:06;;;;;;;17.20;6.03;;;;;;;2.52;51.28;100504.19;4861987;29;20104;-69
2022/03/13 07:55:31;;;;;;;7.10;4.53;;;;;;;2.56;50.89;100504.97;4861233;29;20123;-69
2022/03/13 07:57:56;;;;;;;7.93;4.93;;;;;;;2.38;51.53;100508.91;4861817;29;20131;-68
2022/03/13 08:00:22;;;;;;;6.72;4.28;;;;;;;2.46;51.91;100514.00;4860538;29;20048;-67
2022/03/13 08:02:48;;;;;;;6.80;4.40;;;;;;;2.60;51.65;100519.78;4861145;29;20131;-67
2022/03/13 08:05:18;;;;;;;7.93;4.80;;;;;;;2.54;51.07;100520.81;4860088;29;20052;-69
2022/03/13 08:07:43;;;;;;;8.48;4.82;;;;;;;2.32;51.32;100530.13;4859887;29;20104;-69
2022/03/13 08:10:10;;;;;;;7.10;4.38;;;;;;;2.14;51.84;100533.19;4861203;29;20048;-69
2022/03/13 08:12:38;;;;;;;7.40;4.70;;;;;;;1.98;52.48;100530.03;4863494;29;20494;-69
2022/03/13 08:15:03;;;;;;;6.95;4.15;;;;;;;1.90;52.45;100520.59;4861283;29;20053;-68
2022/03/13 08:17:28;;;;;;;8.60;4.63;;;;;;;1.85;52.81;100530.34;4863632;29;20056;-67
2022/03/13 08:19:56;;;;;;;13.07;4.80;;;;;;;1.91;52.69;100524.97;4846884;29;20484;-69
2022/03/13 08:22:22;;;;;;;9.85;5.10;;;;;;;1.92;52.29;100545.09;4861653;29;20052;-69
2022/03/13 08:24:48;;;;;;;10.23;4.82;;;;;;;2.04;52.15;100534.28;4861831;29;20051;-67
2022/03/13 08:27:13;;;;;;;9.13;4.95;;;;;;;2.00;52.22;100527.38;4863229;29;20055;-67
2022/03/13 08:29:37;;;;;;;10.98;6.70;;;;;;;1.99;52.47;100528.28;4863849;29;20040;-67
2022/03/13 08:32:03;;;;;;;10.73;5.25;;;;;;;1.91;53.22;100522.34;4861215;29;20047;-68
2022/03/13 08:34:29;;;;;;;8.60;5.47;;;;;;;2.00;52.53;100522.97;4860326;29;20048;-68
2022/03/13 08:36:55;;;;;;;9.98;5.45;;;;;;;2.09;52.08;100514.00;4862597;29;20048;-69
2022/03/13 08:39:20;;;;;;;8.57;5.03;;;;;;;2.09;52.28;100516.63;4864062;29;20059;-69
2022/03/13 08:41:44;;;;;;;10.00;6.68;;;;;;;2.11;52.39;100513.09;4864930;29;20053;-69
2022/03/13 08:44:09;;;;;;;9.30;5.70;;;;;;;2.32;52.25;100522.22;4863918;29;20116;-69
2022/03/13 08:46:35;;;;;;;11.40;5.30;;;;;;;2.52;51.55;100511.22;4848088;29;20044;-69
2022/03/13 08:49:00;;;;;;;8.82;4.97;;;;;;;2.64;50.99;100513.53;4865331;29;20045;-69
2022/03/13 08:51:27;;;;;;;10.40;5.85;;;;;;;2.68;51.32;100524.88;4871427;29;20044;-69
2022/03/13 08:53:52;;;;;;;9.63;6.00;;;;;;;2.77;50.79;100522.84;4866259;29;20063;-69
2022/03/13 08:56:18;;;;;;;8.35;5.78;;;;;;;2.88;50.48;100519.94;4850407;29;20143;-68
2022/03/13 08:58:43;;;;;;;16.23;5.60;;;;;;;2.84;50.53;100520.91;4868320;29;20040;-70
2022/03/13 09:01:11;;;;;;;19.23;6.80;;;;;;;2.86;50.71;100514.72;4868632;29;20045;-70
2022/03/13 09:03:37;;;;;;;11.70;5.90;;;;;;;2.88;50.69;100504.16;4848475;29;20045;-69
2022/03/13 09:06:02;;;;;;;11.02;5.93;;;;;;;2.81;51.08;100499.97;4863499;29;20052;-69
2022/03/13 09:08:28;;;;;;;12.65;6.40;;;;;;;3.09;51.00;100492.16;4865090;29;20040;-69
2022/03/13 09:10:53;;;;;;;8.77;5.88;;;;;;;3.41;49.73;100497.38;4832619;29;20112;-69
2022/03/13 09:13:20;;;;;;;9.88;5.70;;;;;;;3.75;49.49;100492.00;4865087;29;20040;-69
2022/03/13 09:15:47;;;;;;;10.20;5.38;;;;;;;3.96;48.10;100491.34;4865022;29;20080;-69
2022/03/13 09:18:13;;;;;;;8.98;5.38;;;;;;;3.96;48.13;100478.16;4864137;29;20052;-69
2022/03/13 09:20:38;;;;;;;9.80;4.97;;;;;;;4.02;47.97;100487.66;4865472;29;20044;-69
2022/03/13 09:23:03;;;;;;;11.05;5.05;;;;;;;3.99;47.83;100485.09;4866918;29;20534;-69
2022/03/13 09:25:28;;;;;;;9.30;4.88;;;;;;;3.96;48.37;100486.06;4848980;29;20499;-69
2022/03/13 09:27:53;;;;;;;8.68;5.40;;;;;;;3.89;47.74;100483.66;4866046;29;20045;-69
2022/03/13 09:30:19;;;;;;;11.35;5.22;;;;;;;4.00;48.22;100485.06;4863853;29;20479;-70
2022/03/13 09:32:44;;;;;;;6.65;5.03;;;;;;;3.89;47.92;100486.31;4864708;29;20128;-69
2022/03/13 09:35:11;;;;;;;7.90;5.30;;;;;;;3.95;48.32;100479.06;4848053;29;20084;-71
2022/03/13 09:37:36;;;;;;;7.95;4.97;;;;;;;3.95;48.23;100483.50;4865351;29;20064;-70
2022/03/13 09:40:00;;;;;;;9.48;5.40;;;;;;;3.88;47.87;100481.94;4864718;29;20131;-70
2022/03/13 09:42:25;;;;;;;8.43;4.80;;;;;;;3.96;48.23;100485.19;4864383;29;20044;-71
2022/03/13 09:44:52;;;;;;;17.67;5.63;;;;;;;4.07;47.65;100480.44;4864265;29;20048;-71
2022/03/13 09:47:17;;;;;;;9.70;5.40;;;;;;;4.29;47.91;100475.34;4864277;29;20048;-70
2022/03/13 09:49:42;;;;;;;8.07;4.60;;;;;;;4.29;47.60;100470.94;4864279;29;20067;-71
2022/03/13 09:52:07;;;;;;;8.57;5.35;;;;;;;4.10;47.45;100468.94;4864787;29;20105;-70
2022/03/13 09:54:32;;;;;;;11.38;5.82;;;;;;;4.08;47.48;100468.13;4837621;29;20416;-70
2022/03/13 09:56:57;;;;;;;10.90;5.40;;;;;;;4.28;47.44;100473.63;4865016;29;20044;-70
2022/03/13 09:59:22;;;;;;;11.23;5.18;;;;;;;4.37;47.25;100465.41;4865573;29;20080;-70
2022/03/13 10:01:47;;;;;;;8.20;5.50;;;;;;;4.39;47.06;100463.59;4864998;29;20616;-71
2022/03/13 10:04:12;;;;;;;11.30;6.30;;;;;;;4.36;47.41;100463.69;4871426;29;20055;-72
2022/03/13 10:07:01;;;;;;;7.95;5.22;;;;;;;4.62;47.40;100470.75;4870835;29;20040;-70
2022/03/13 10:09:28;;;;;;;9.68;5.50;;;;;;;4.69;47.07;100467.84;4869277;29;20049;-70
2022/03/13 10:12:07;;;;;;;8.48;4.95;;;;;;;4.90;46.61;100458.28;4850158;29;20527;-70
2022/03/13 10:14:32;;;;;;;8.50;5.97;;;;;;;4.71;46.56;100450.16;4878232;29;20053;-70
2022/03/13 10:16:58;;;;;;;9.82;5.20;;;;;;;4.65;46.66;100454.78;4876227;29;20120;-71
2022/03/13 10:19:26;;;;;;;8.75;5.65;;;;;;;4.89;46.33;100459.19;4876065;29;20049;-70
2022/03/13 10:22:08;;;;;;;10.10;5.53;;;;;;;5.07;45.49;100455.06;4870781;29;20055;-71
2022/03/13 10:24:43;;;;;;;10.35;5.05;;;;;;;5.08;45.89;100449.69;4870983;29;20071;-70
2022/03/13 10:27:10;;;;;;;10.90;5.25;;;;;;;5.09;45.99;100447.91;4864838;29;20585;-71
2022/03/13 10:29:35;;;;;;;10.05;5.50;;;;;;;5.24;45.81;100442.09;4863378;29;20048;-69
2022/03/13 10:32:00;;;;;;;10.48;5.93;;;;;;;5.31;45.46;100427.69;4864558;29;20100;-69
2022/03/13 10:34:30;;;;;;;8.68;5.65;;;;;;;5.41;45.24;100428.25;4863387;29;20111;-68
2022/03/13 10:36:55;;;;;;;8.23;5.63;;;;;;;5.33;45.04;100423.22;4863590;29;20044;-69
2022/03/13 10:39:21;;;;;;;7.45;5.38;;;;;;;5.66;44.98;100415.78;4863495;29;20048;-68
2022/03/13 10:41:56;;;;;;;8.85;5.10;;;;;;;5.97;44.04;100419.91;4863401;29;20566;-69
2022/03/13 10:44:22;;;;;;;9.13;5.07;;;;;;;6.40;43.65;100414.56;4862416;29;20044;-69
2022/03/13 10:46:53;;;;;;;14.15;6.10;;;;;;;6.65;42.11;100413.53;4862304;29;20448;-69
2022/03/13 10:49:31;;;;;;;8.65;5.65;;;;;;;6.79;42.16;100411.97;4862035;29;20084;-68
2022/03/13 10:51:57;;;;;;;7.45;4.53;;;;;;;6.79;42.34;100414.63;4863355;29;20067;-68
2022/03/13 10:54:29;;;;;;;7.57;4.55;;;;;;;6.71;41.85;100408.81;4868553;29;20127;-68
2022/03/13 10:57:09;;;;;;;9.55;4.95;;;;;;;6.48;42.89;100411.59;4865215;29;20040;-69
2022/03/13 10:59:35;;;;;;;12.82;5.28;;;;;;;6.14;42.50;100407.69;4863040;29;20052;-69
2022/03/13 11:02:11;;;;;;;12.20;4.97;;;;;;;5.76;43.69;100406.56;4861751;29;20056;-69
2022/03/13 11:04:44;;;;;;;7.88;4.63;;;;;;;5.67;44.03;100398.13;4863891;29;20080;-71
2022/03/13 11:07:09;;;;;;;8.82;5.28;;;;;;;6.02;43.81;100400.25;4884192;29;20511;-69
2022/03/13 11:09:34;;;;;;;10.10;5.75;;;;;;;6.25;42.91;100401.09;4880451;29;20538;-69
2022/03/13 11:12:09;;;;;;;10.27;5.20;;;;;;;6.18;43.13;100396.06;4880012;29;20032;-69
2022/03/13 11:14:34;;;;;;;7.30;4.72;;;;;;;6.06;43.08;100399.22;4881544;29;20056;-69
2022/03/13 11:17:00;;;;;;;8.88;4.55;;;;;;;6.03;42.82;100401.97;4881746;29;20060;-73
2022/03/13 11:19:25;;;;;;;10.48;4.85;;;;;;;5.88;43.68;100394.66;4873081;29;20066;-68
2022/03/13 11:21:50;;;;;;;11.70;5.03;;;;;;;5.44;43.98;100394.59;4869608;29;20068;-69